createdAt,value
2023-04-02T00:00:17.424Z,69.88
2023-04-02T00:03:03.975Z,70.15
2023-04-02T00:05:52.174Z,69.40
2023-04-02T00:08:39.056Z,68.75
2023-04-02T00:11:06.803Z,68.22
2023-04-02T00:13:41.277Z,68.33
2023-04-02T00:16:13.861Z,68.77
2023-04-02T00:18:46.704Z,68.87
2023-04-02T00:21:27.448Z,68.80
2023-04-02T00:23:56.105Z,68.86
2023-04-02T00:26:36.827Z,69.07
2023-04-02T00:29:05.832Z,68.77
2023-04-02T00:31:34.583Z,68.68
2023-04-02T00:34:05.031Z,68.62
2023-04-02T00:36:34.322Z,68.60
2023-04-02T00:39:04.941Z,67.88
2023-04-02T00:41:36.326Z,67.59
2023-04-02T00:44:03.808Z,67.00
2023-04-02T00:46:47.326Z,67.14
2023-04-02T00:49:26.682Z,65.92
2023-04-02T00:52:00.540Z,65.65
2023-04-02T00:54:31.394Z,65.66
2023-04-02T00:56:59.171Z,65.79
2023-04-02T00:59:36.921Z,65.89
2023-04-02T01:02:18.989Z,65.93
2023-04-02T01:05:00.002Z,66.02
2023-04-02T01:07:43.938Z,66.15
2023-04-02T01:10:18.072Z,65.55
2023-04-02T01:12:51.069Z,65.31
2023-04-02T01:15:36.371Z,65.18
2023-04-02T01:18:31.477Z,65.03
2023-04-02T01:21:07.838Z,65.87
2023-04-02T01:24:00.353Z,66.16
2023-04-02T01:26:47.904Z,66.12
2023-04-02T01:29:23.509Z,65.75
2023-04-02T01:31:53.524Z,67.71
2023-04-02T01:34:25.169Z,69.45
2023-04-02T01:37:44.941Z,70.87
2023-04-02T01:40:31.370Z,72.15
2023-04-02T01:43:28.435Z,73.05
2023-04-02T01:45:58.584Z,73.71
2023-04-02T01:48:30.171Z,74.26
2023-04-02T01:50:59.966Z,74.37
2023-04-02T01:53:30.815Z,74.67
2023-04-02T01:56:00.907Z,75.37
2023-04-02T01:58:32.483Z,75.55
2023-04-02T02:01:09.438Z,76.68
2023-04-02T02:03:41.141Z,77.69
2023-04-02T02:06:12.924Z,77.88
2023-04-02T02:08:47.672Z,78.39
2023-04-02T02:11:18.967Z,78.77
2023-04-02T02:13:48.156Z,79.11
2023-04-02T02:16:18.154Z,79.33
2023-04-02T02:18:53.280Z,79.74
2023-04-02T02:21:32.360Z,80.29
2023-04-02T02:24:00.400Z,80.57
2023-04-02T02:26:29.669Z,80.51
2023-04-02T02:28:58.156Z,80.56
2023-04-02T02:31:33.238Z,80.69
2023-04-02T02:34:15.316Z,80.55
2023-04-02T02:36:55.072Z,80.80
2023-04-02T02:39:32.312Z,81.13
2023-04-02T02:42:14.590Z,80.99
2023-04-02T02:44:46.762Z,81.18
2023-04-02T02:47:34.205Z,80.88
2023-04-02T02:50:08.017Z,80.37
2023-04-02T02:52:38.200Z,80.28
2023-04-02T02:55:22.637Z,80.31
2023-04-02T02:58:04.467Z,79.83
2023-04-02T03:00:37.867Z,79.83
2023-04-02T03:03:17.057Z,79.94
2023-04-02T03:05:45.030Z,79.67
2023-04-02T03:08:26.653Z,79.90
2023-04-02T03:11:01.183Z,80.26
2023-04-02T03:13:35.738Z,80.31
2023-04-02T03:16:46.372Z,80.89
2023-04-02T03:19:43.839Z,81.45
2023-04-02T03:22:21.185Z,81.66
2023-04-02T03:25:02.354Z,82.17
2023-04-02T03:27:36.744Z,82.49
2023-04-02T03:30:41.375Z,82.87
2023-04-02T03:33:21.870Z,83.09
2023-04-02T03:35:56.629Z,83.64
2023-04-02T03:38:37.170Z,84.01
2023-04-02T03:41:30.952Z,84.34
2023-04-02T03:44:07.802Z,84.83
2023-04-02T03:46:42.171Z,85.04
2023-04-02T03:49:20.037Z,85.22
2023-04-02T03:51:59.459Z,85.50
2023-04-02T03:54:27.723Z,85.71
2023-04-02T03:56:55.059Z,85.96
2023-04-02T03:59:50.808Z,85.72
2023-04-02T04:02:24.222Z,86.33
2023-04-02T04:04:53.637Z,86.73
2023-04-02T04:07:32.601Z,87.02
2023-04-02T04:10:01.578Z,87.31
2023-04-02T04:12:34.941Z,87.58
2023-04-02T04:15:12.401Z,87.73
2023-04-02T04:18:04.317Z,87.76
2023-04-02T04:20:46.061Z,87.78
2023-04-02T04:23:30.720Z,88.18
2023-04-02T04:26:09.731Z,88.29
2023-04-02T04:28:58.436Z,88.37
2023-04-02T04:31:34.672Z,88.13
2023-04-02T04:34:10.452Z,88.33
2023-04-02T04:36:55.760Z,88.15
2023-04-02T04:39:34.902Z,88.19
2023-04-02T04:42:05.167Z,88.11
2023-04-02T04:44:53.390Z,88.33
2023-04-02T04:47:31.084Z,88.54
2023-04-02T04:50:14.287Z,88.45
2023-04-02T04:52:44.037Z,88.38
2023-04-02T04:55:43.724Z,88.37
2023-04-02T04:58:26.011Z,88.14
2023-04-02T05:01:05.810Z,87.81
2023-04-02T05:03:52.100Z,87.58
2023-04-02T05:06:36.562Z,87.34
2023-04-02T05:09:18.794Z,86.98
2023-04-02T05:11:54.623Z,86.42
2023-04-02T05:14:37.749Z,86.33
2023-04-02T05:17:22.412Z,85.88
2023-04-02T05:20:06.286Z,85.68
2023-04-02T05:22:42.990Z,85.68
2023-04-02T05:25:15.592Z,85.07
2023-04-02T05:28:10.333Z,84.61
2023-04-02T05:30:38.576Z,84.03
2023-04-02T05:33:18.748Z,83.23
2023-04-02T05:35:49.606Z,82.12
2023-04-02T05:38:23.889Z,82.04
2023-04-02T05:40:59.618Z,80.35
2023-04-02T05:43:28.507Z,79.94
2023-04-02T05:45:59.533Z,79.99
2023-04-02T05:48:34.944Z,79.94
2023-04-02T05:51:07.993Z,79.44
2023-04-02T05:53:45.300Z,78.06
2023-04-02T05:56:37.524Z,77.06
2023-04-02T05:59:11.591Z,77.04
2023-04-02T06:01:54.207Z,76.49
2023-04-02T06:04:36.496Z,75.28
2023-04-02T06:07:23.532Z,74.90
2023-04-02T06:10:04.990Z,74.30
2023-04-02T06:12:47.462Z,74.36
2023-04-02T06:15:18.486Z,74.23
2023-04-02T06:18:09.471Z,73.78
2023-04-02T06:20:39.948Z,74.00
2023-04-02T06:23:14.823Z,73.19
2023-04-02T06:25:48.260Z,72.73
2023-04-02T06:28:20.316Z,71.10
2023-04-02T06:30:58.165Z,71.73
2023-04-02T06:33:25.678Z,70.73
2023-04-02T06:35:54.763Z,70.56
2023-04-02T06:38:31.338Z,70.27
2023-04-02T06:41:03.110Z,70.41
2023-04-02T06:43:49.461Z,70.00
2023-04-02T06:46:54.215Z,69.71
2023-04-02T06:49:46.018Z,69.25
2023-04-02T06:52:33.379Z,68.16
2023-04-02T06:55:21.712Z,67.99
2023-04-02T06:57:49.150Z,68.71
2023-04-02T07:00:38.691Z,67.54
2023-04-02T07:03:32.343Z,67.50
2023-04-02T07:06:05.860Z,67.70
2023-04-02T07:08:34.447Z,67.67
2023-04-02T07:11:01.446Z,67.11
2023-04-02T07:13:29.221Z,66.95
2023-04-02T07:15:56.752Z,67.01
2023-04-02T07:18:34.191Z,66.92
2023-04-02T07:21:05.196Z,67.02
2023-04-02T07:23:32.283Z,66.76
2023-04-02T07:25:59.559Z,66.73
2023-04-02T07:28:26.644Z,64.82
2023-04-02T07:30:54.290Z,65.25
2023-04-02T07:33:24.555Z,64.09
2023-04-02T07:35:53.599Z,64.35
2023-04-02T07:38:20.781Z,63.45
2023-04-02T07:40:48.167Z,62.00
2023-04-02T07:43:15.547Z,61.23
2023-04-02T07:45:42.458Z,58.12
2023-04-02T07:48:12.577Z,57.91
2023-04-02T07:50:39.669Z,57.12
2023-04-02T07:53:08.930Z,55.45
2023-04-02T07:55:36.448Z,56.19
2023-04-02T07:58:04.199Z,55.13
2023-04-02T08:00:31.238Z,54.69
2023-04-02T08:02:58.373Z,54.27
2023-04-02T08:05:26.991Z,53.54
2023-04-02T08:07:57.272Z,53.22
2023-04-02T08:10:24.798Z,53.47
2023-04-02T08:12:51.735Z,54.12
2023-04-02T08:15:19.231Z,52.24
2023-04-02T08:17:46.764Z,52.97
2023-04-02T08:20:18.854Z,52.32
2023-04-02T08:22:47.270Z,52.49
2023-04-02T08:25:14.746Z,51.90
2023-04-02T08:27:42.564Z,51.02
2023-04-02T08:30:12.688Z,51.32
2023-04-02T08:32:41.266Z,51.13
2023-04-02T08:35:11.120Z,50.33
2023-04-02T08:37:38.340Z,49.01
2023-04-02T08:40:10.075Z,50.24
2023-04-02T08:43:03.495Z,47.72
2023-04-02T08:45:49.045Z,48.21
2023-04-02T08:48:16.874Z,46.85
2023-04-02T08:50:44.886Z,48.63
2023-04-02T08:53:34.865Z,48.30
2023-04-02T08:56:17.794Z,46.75
2023-04-02T08:58:48.578Z,45.90
2023-04-02T09:01:28.114Z,46.54
2023-04-02T09:03:58.750Z,45.37
2023-04-02T09:06:28.254Z,45.44
2023-04-02T09:08:57.059Z,44.63
2023-04-02T09:11:31.612Z,43.72
2023-04-02T09:14:01.945Z,44.08
2023-04-02T09:16:44.101Z,44.00
2023-04-02T09:19:18.747Z,42.87
2023-04-02T09:21:55.129Z,40.77
2023-04-02T09:24:21.989Z,41.57
2023-04-02T09:26:48.951Z,42.98
2023-04-02T09:29:28.518Z,43.56
2023-04-02T09:32:08.033Z,43.71
2023-04-02T09:34:36.700Z,44.95
2023-04-02T09:37:19.714Z,42.96
2023-04-02T09:39:47.257Z,41.44
2023-04-02T09:42:35.366Z,42.71
2023-04-02T09:45:13.180Z,43.77
2023-04-02T09:47:42.464Z,44.62
2023-04-02T09:50:22.017Z,43.73
2023-04-02T09:52:50.150Z,44.14
2023-04-02T09:55:20.431Z,43.15
2023-04-02T09:57:49.659Z,42.40
2023-04-02T10:00:26.025Z,42.08
2023-04-02T10:03:18.005Z,41.38
2023-04-02T10:05:46.771Z,40.74
2023-04-02T10:08:24.865Z,39.74
2023-04-02T10:10:56.882Z,40.53
2023-04-02T10:13:41.127Z,40.77
2023-04-02T10:16:34.195Z,40.50
2023-04-02T10:19:14.901Z,40.30
2023-04-02T10:21:49.152Z,40.87
2023-04-02T10:24:17.307Z,42.63
2023-04-02T10:27:02.765Z,44.44
2023-04-02T10:29:44.786Z,45.34
2023-04-02T10:32:19.133Z,45.42
2023-04-02T10:34:58.134Z,44.33
2023-04-02T10:37:43.255Z,45.33
2023-04-02T10:40:29.492Z,45.19
2023-04-02T10:43:07.480Z,43.37
2023-04-02T10:45:54.681Z,43.34
2023-04-02T10:48:30.771Z,43.88
2023-04-02T10:51:06.163Z,43.07
2023-04-02T10:53:47.445Z,43.98
2023-04-02T10:56:15.491Z,44.33
2023-04-02T10:58:58.955Z,44.56
2023-04-02T11:01:29.943Z,44.75
2023-04-02T11:04:07.029Z,44.46
2023-04-02T11:07:06.971Z,43.40
2023-04-02T11:09:45.720Z,44.08
2023-04-02T11:12:52.813Z,43.84
2023-04-02T11:15:20.822Z,43.68
2023-04-02T11:17:48.526Z,44.11
2023-04-02T11:20:44.101Z,43.74
2023-04-02T11:23:18.987Z,44.65
2023-04-02T11:25:47.426Z,43.77
2023-04-02T11:28:30.506Z,44.31
2023-04-02T11:30:58.553Z,43.37
2023-04-02T11:33:38.200Z,43.17
2023-04-02T11:36:44.331Z,42.96
2023-04-02T11:39:17.340Z,43.18
2023-04-02T11:42:04.379Z,42.48
2023-04-02T11:44:31.657Z,42.90
2023-04-02T11:47:19.739Z,43.02
2023-04-02T11:49:56.288Z,41.34
2023-04-02T11:52:31.041Z,41.34
2023-04-02T11:54:59.759Z,42.27
2023-04-02T11:57:45.402Z,42.10
2023-04-02T12:00:13.375Z,42.54
2023-04-02T12:03:08.329Z,41.32
2023-04-02T12:06:33.312Z,41.71
2023-04-02T12:09:22.624Z,41.13
2023-04-02T12:11:55.712Z,40.77
2023-04-02T12:14:37.861Z,40.55
2023-04-02T12:17:34.181Z,40.33
2023-04-02T12:20:08.823Z,40.71
2023-04-02T12:22:46.104Z,41.19
2023-04-02T12:25:19.144Z,41.66
2023-04-02T12:27:49.132Z,41.06
2023-04-02T12:30:22.057Z,40.34
2023-04-02T12:32:50.379Z,40.85
2023-04-02T12:35:32.623Z,40.93
2023-04-02T12:37:59.690Z,40.94
2023-04-02T12:40:27.074Z,41.08
2023-04-02T12:42:54.781Z,39.44
2023-04-02T12:45:27.864Z,40.34
2023-04-02T12:47:57.889Z,39.62
2023-04-02T12:50:25.015Z,40.58
2023-04-02T12:52:55.071Z,40.68
2023-04-02T12:55:26.954Z,40.60
2023-04-02T12:57:58.481Z,40.01
2023-04-02T13:00:25.779Z,39.07
2023-04-02T13:03:05.180Z,40.64
2023-04-02T13:05:41.396Z,40.93
2023-04-02T13:08:33.194Z,40.21
2023-04-02T13:11:02.803Z,39.60
2023-04-02T13:13:36.118Z,39.62
2023-04-02T13:16:19.981Z,37.67
2023-04-02T13:18:49.330Z,38.83
2023-04-02T13:21:19.697Z,39.38
2023-04-02T13:23:47.393Z,38.54
2023-04-02T13:26:19.442Z,39.14
2023-04-02T13:28:56.674Z,38.78
2023-04-02T13:31:23.906Z,38.17
2023-04-02T13:33:51.748Z,39.29
2023-04-02T13:36:18.758Z,39.04
2023-04-02T13:39:05.226Z,40.16
2023-04-02T13:41:39.353Z,40.52
2023-04-02T13:44:06.618Z,38.85
2023-04-02T13:46:34.963Z,36.98
2023-04-02T13:49:02.571Z,37.94
2023-04-02T13:51:37.861Z,36.31
2023-04-02T13:54:13.976Z,36.66
2023-04-02T13:56:41.345Z,36.30
2023-04-02T13:59:08.692Z,37.79
2023-04-02T14:01:35.905Z,36.89
2023-04-02T14:04:03.590Z,37.07
2023-04-02T14:06:36.531Z,36.41
2023-04-02T14:09:25.011Z,36.92
2023-04-02T14:11:55.086Z,36.62
2023-04-02T14:14:41.581Z,37.22
2023-04-02T14:17:22.656Z,35.88
2023-04-02T14:20:00.177Z,37.81
2023-04-02T14:22:43.746Z,36.67
2023-04-02T14:25:36.087Z,36.25
2023-04-02T14:28:38.043Z,37.10
2023-04-02T14:31:32.668Z,37.27
2023-04-02T14:34:15.764Z,36.80
2023-04-02T14:37:04.666Z,36.84
2023-04-02T14:39:45.966Z,36.21
2023-04-02T14:42:18.468Z,35.82
2023-04-02T14:45:05.516Z,36.98
2023-04-02T14:47:45.280Z,37.70
2023-04-02T14:50:33.509Z,36.00
2023-04-02T14:53:08.625Z,37.57
2023-04-02T14:55:46.901Z,37.82
2023-04-02T14:58:23.380Z,38.55
2023-04-02T15:01:14.155Z,37.25
2023-04-02T15:03:48.766Z,38.19
2023-04-02T15:06:21.621Z,38.23
2023-04-02T15:09:06.644Z,38.25
2023-04-02T15:11:45.844Z,38.85
2023-04-02T15:14:21.270Z,38.45
2023-04-02T15:16:48.366Z,37.87
2023-04-02T15:19:18.044Z,37.10
2023-04-02T15:22:12.505Z,37.23
2023-04-02T15:24:59.691Z,37.83
2023-04-02T15:27:45.276Z,38.22
2023-04-02T15:30:23.547Z,37.32
2023-04-02T15:32:51.173Z,34.79
2023-04-02T15:35:22.242Z,33.20
2023-04-02T15:38:05.107Z,29.56
2023-04-02T15:40:50.073Z,29.15
2023-04-02T15:43:26.357Z,28.98
2023-04-02T15:46:11.584Z,27.64
2023-04-02T15:48:47.739Z,27.56
2023-04-02T15:51:33.520Z,26.26
2023-04-02T15:54:26.966Z,26.63
2023-04-02T15:57:22.431Z,26.57
2023-04-02T15:59:55.635Z,26.76
2023-04-02T16:02:31.703Z,26.75
2023-04-02T16:05:12.236Z,26.36
2023-04-02T16:07:48.167Z,25.31
2023-04-02T16:10:42.567Z,27.65
2023-04-02T16:13:29.362Z,28.66
2023-04-02T16:16:07.322Z,28.15
2023-04-02T16:18:53.193Z,28.87
2023-04-02T16:21:28.699Z,29.19
2023-04-02T16:23:55.993Z,29.13
2023-04-02T16:26:35.447Z,29.96
2023-04-02T16:29:15.463Z,31.83
2023-04-02T16:32:02.310Z,32.80
2023-04-02T16:35:15.012Z,34.21
2023-04-02T16:37:55.733Z,34.33
2023-04-02T16:40:41.534Z,35.70
2023-04-02T16:43:19.220Z,36.09
2023-04-02T16:46:11.915Z,37.37
2023-04-02T16:49:17.460Z,38.44
2023-04-02T16:52:02.964Z,37.43
2023-04-02T16:54:39.105Z,38.00
2023-04-02T16:57:12.028Z,38.56
2023-04-02T16:59:57.627Z,38.59
2023-04-02T17:02:49.757Z,39.92
2023-04-02T17:05:26.191Z,40.11
2023-04-02T17:08:05.147Z,40.74
2023-04-02T17:10:54.827Z,41.70
2023-04-02T17:13:41.998Z,42.29
2023-04-02T17:16:12.166Z,44.14
2023-04-02T17:18:42.034Z,43.97
2023-04-02T17:21:14.949Z,44.67
2023-04-02T17:24:17.338Z,44.60
2023-04-02T17:26:48.224Z,45.02
2023-04-02T17:29:20.338Z,44.86
2023-04-02T17:31:49.648Z,45.87
2023-04-02T17:34:18.514Z,46.49
2023-04-02T17:37:15.255Z,47.55
2023-04-02T17:40:21.077Z,47.09
2023-04-02T17:43:12.451Z,46.44
2023-04-02T17:45:52.446Z,47.14
2023-04-02T17:48:26.867Z,47.19
2023-04-02T17:51:19.121Z,47.74
2023-04-02T17:53:58.573Z,47.87
2023-04-02T17:56:26.692Z,47.72
2023-04-02T17:59:06.102Z,48.90
2023-04-02T18:01:54.785Z,49.56
2023-04-02T18:04:53.333Z,49.78
2023-04-02T18:07:29.247Z,49.40
2023-04-02T18:10:25.738Z,50.37
2023-04-02T18:13:07.428Z,50.98
2023-04-02T18:15:48.695Z,50.51
2023-04-02T18:18:27.908Z,50.30
2023-04-02T18:21:30.733Z,50.91
2023-04-02T18:24:22.484Z,51.20
2023-04-02T18:27:11.422Z,50.19
2023-04-02T18:30:06.465Z,51.08
2023-04-02T18:32:42.357Z,51.00
2023-04-02T18:35:29.858Z,51.88
2023-04-02T18:38:29.416Z,51.58
2023-04-02T18:41:01.869Z,50.48
2023-04-02T18:43:51.149Z,51.27
2023-04-02T18:46:27.316Z,50.43
2023-04-02T18:49:26.670Z,51.46
2023-04-02T18:52:03.100Z,50.62
2023-04-02T18:54:38.046Z,50.75
2023-04-02T18:57:15.173Z,50.86
2023-04-02T18:59:51.200Z,50.92
2023-04-02T19:02:49.229Z,50.82
2023-04-02T19:05:28.620Z,52.32
2023-04-02T19:08:19.485Z,51.81
2023-04-02T19:10:53.062Z,53.75
2023-04-02T19:13:21.605Z,53.22
2023-04-02T19:15:55.464Z,54.49
2023-04-02T19:18:44.871Z,54.49
2023-04-02T19:21:18.048Z,55.13
2023-04-02T19:24:18.687Z,55.51
2023-04-02T19:27:08.422Z,55.19
2023-04-02T19:30:11.610Z,55.27
2023-04-02T19:32:51.339Z,54.89
2023-04-02T19:35:28.797Z,55.37
2023-04-02T19:38:13.560Z,55.76
2023-04-02T19:40:53.700Z,56.72
2023-04-02T19:43:20.924Z,57.68
2023-04-02T19:45:49.241Z,57.91
2023-04-02T19:48:20.628Z,58.44
2023-04-02T19:50:49.226Z,58.72
2023-04-02T19:53:16.732Z,57.62
2023-04-02T19:55:44.556Z,57.64
2023-04-02T19:58:32.861Z,57.85
2023-04-02T20:01:00.804Z,57.64
2023-04-02T20:03:28.050Z,58.60
2023-04-02T20:05:55.059Z,58.68
2023-04-02T20:08:22.104Z,58.95
2023-04-02T20:10:49.296Z,58.95
2023-04-02T20:13:16.276Z,59.24
2023-04-02T20:15:43.297Z,59.52
2023-04-02T20:18:11.001Z,59.32
2023-04-02T20:20:39.535Z,59.65
2023-04-02T20:23:06.551Z,59.85
2023-04-02T20:25:33.329Z,60.46
2023-04-02T20:28:01.144Z,59.76
2023-04-02T20:30:28.065Z,60.64
2023-04-02T20:32:58.556Z,59.97
2023-04-02T20:35:26.561Z,60.46
2023-04-02T20:37:53.447Z,61.03
2023-04-02T20:40:20.377Z,61.02
2023-04-02T20:42:47.328Z,59.97
2023-04-02T20:45:14.202Z,61.03
2023-04-02T20:47:41.469Z,62.20
2023-04-02T20:50:09.014Z,63.46
2023-04-02T20:52:35.861Z,64.05
2023-04-02T20:55:03.597Z,63.85
2023-04-02T20:57:30.748Z,63.47
2023-04-02T20:59:58.966Z,62.88
2023-04-02T21:02:26.027Z,62.85
2023-04-02T21:04:53.191Z,63.17
2023-04-02T21:07:20.486Z,63.40
2023-04-02T21:09:47.573Z,64.28
2023-04-02T21:12:14.606Z,64.60
2023-04-02T21:14:41.711Z,63.84
2023-04-02T21:17:09.112Z,64.06
2023-04-02T21:19:36.257Z,63.70
2023-04-02T21:22:03.660Z,65.18
2023-04-02T21:24:30.977Z,65.69
2023-04-02T21:26:58.031Z,66.07
2023-04-02T21:29:25.099Z,66.39
2023-04-02T21:31:53.143Z,65.68
2023-04-02T21:34:20.097Z,65.81
2023-04-02T21:36:48.828Z,65.96
2023-04-02T21:39:23.880Z,66.21
2023-04-02T21:41:53.252Z,66.30
2023-04-02T21:44:22.433Z,66.84
2023-04-02T21:46:51.816Z,67.18
2023-04-02T21:49:22.752Z,67.74
2023-04-02T21:51:51.765Z,67.83
2023-04-02T21:54:18.983Z,67.56
2023-04-02T21:56:46.992Z,68.05
2023-04-02T21:59:16.110Z,68.17
2023-04-02T22:01:54.504Z,68.32
2023-04-02T22:04:26.483Z,68.96
2023-04-02T22:06:54.426Z,69.12
2023-04-02T22:09:23.876Z,69.45
2023-04-02T22:11:54.463Z,69.51
2023-04-02T22:14:22.955Z,69.45
2023-04-02T22:16:53.662Z,69.61
2023-04-02T22:19:21.374Z,69.90
2023-04-02T22:21:48.932Z,70.19
2023-04-02T22:24:25.582Z,70.51
2023-04-02T22:26:53.930Z,70.56
2023-04-02T22:29:21.672Z,70.76
2023-04-02T22:31:52.102Z,70.64
2023-04-02T22:34:19.329Z,71.14
2023-04-02T22:36:46.216Z,71.39
2023-04-02T22:39:13.423Z,71.94
2023-04-02T22:41:40.448Z,71.80
2023-04-02T22:44:07.741Z,71.21
2023-04-02T22:46:34.872Z,71.13
2023-04-02T22:49:02.201Z,71.60
2023-04-02T22:51:29.472Z,71.70
2023-04-02T22:53:57.059Z,71.64
2023-04-02T22:56:28.769Z,72.13
2023-04-02T22:58:55.933Z,72.29
2023-04-02T23:01:30.061Z,72.42
2023-04-02T23:04:16.150Z,72.45
2023-04-02T23:06:43.137Z,72.68
2023-04-02T23:09:10.405Z,72.77
2023-04-02T23:11:37.460Z,73.47
2023-04-02T23:14:04.408Z,73.42
2023-04-02T23:16:31.549Z,73.93
2023-04-02T23:18:58.655Z,73.90
2023-04-02T23:21:26.522Z,73.82
2023-04-02T23:23:53.845Z,73.94
2023-04-02T23:26:27.173Z,73.98
2023-04-02T23:28:54.889Z,74.20
2023-04-02T23:31:22.823Z,74.46
2023-04-02T23:33:51.547Z,74.30
2023-04-02T23:36:27.887Z,74.54
2023-04-02T23:38:57.434Z,74.53
2023-04-02T23:41:27.181Z,74.74
2023-04-02T23:43:55.399Z,75.00
2023-04-02T23:46:22.965Z,75.23
2023-04-02T23:48:51.252Z,75.52
2023-04-02T23:51:18.798Z,75.84
2023-04-02T23:53:45.698Z,75.96
2023-04-02T23:56:12.720Z,76.05
2023-04-02T23:58:39.582Z,76.49
